Time;durP1;ratioP1;P1;durP2;ratioP2;P2;SDS_P1;SDS_P2;PMS_P1;PMS_P2;Temp;Humidity;BMP_temperature;BMP_pressure;BME280_temperature;BME280_humidity;BME280_pressure;Samples;Min_cycle;Max_cycle;Signal;HPM_P1;HPM_P2
2023/06/05 00:01:39;;;;;;;2.00;1.67;;;16.50;99.90;;;;;;5023409;28;20036;-74
2023/06/05 00:04:05;;;;;;;3.35;1.60;;;16.40;99.90;;;;;;5019270;28;20123;-71
2023/06/05 00:06:31;;;;;;;4.25;1.80;;;16.50;99.90;;;;;;5017807;28;20677;-71
2023/06/05 00:08:57;;;;;;;3.17;1.70;;;16.50;99.90;;;;;;5020083;28;20117;-73
2023/06/05 00:11:23;;;;;;;2.60;2.08;;;16.50;99.90;;;;;;5022493;28;20048;-73
2023/06/05 00:13:51;;;;;;;3.60;1.63;;;16.50;99.90;;;;;;5030628;28;20159;-73
2023/06/05 00:16:16;;;;;;;2.78;1.70;;;16.50;99.90;;;;;;5022232;28;20043;-73
2023/06/05 00:18:45;;;;;;;3.38;2.00;;;16.50;99.90;;;;;;5023859;28;20575;-67
2023/06/05 00:21:12;;;;;;;2.17;1.80;;;16.50;99.90;;;;;;5017131;28;20376;-67
2023/06/05 00:23:38;;;;;;;1.95;1.80;;;16.40;99.90;;;;;;5026590;28;20032;-67
2023/06/05 00:26:04;;;;;;;1.70;1.60;;;16.40;99.90;;;;;;5025930;28;20576;-67
2023/06/05 00:28:29;;;;;;;5.03;2.00;;;16.40;99.90;;;;;;5026355;28;20036;-67
2023/06/05 00:30:55;;;;;;;3.20;2.38;;;16.40;99.90;;;;;;5025325;28;20033;-67
2023/06/05 00:33:21;;;;;;;1.98;1.73;;;16.40;99.90;;;;;;5026264;28;20025;-67
2023/06/05 00:35:46;;;;;;;3.20;1.80;;;16.40;99.90;;;;;;5024004;28;20118;-65
2023/06/05 00:38:12;;;;;;;3.67;2.10;;;16.50;99.90;;;;;;5023747;28;20033;-65
2023/06/05 00:40:38;;;;;;;5.28;1.80;;;16.50;99.90;;;;;;5028811;28;20308;-65
2023/06/05 00:43:05;;;;;;;3.72;1.77;;;16.40;99.90;;;;;;5024942;28;20980;-65
2023/06/05 00:45:31;;;;;;;3.30;1.85;;;16.40;99.90;;;;;;5029736;28;20053;-67
2023/06/05 00:47:57;;;;;;;5.43;1.73;;;16.30;99.90;;;;;;5035553;28;20025;-68
2023/06/05 00:50:23;;;;;;;2.95;1.83;;;16.30;99.90;;;;;;5045591;28;20477;-67
2023/06/05 00:52:50;;;;;;;2.67;2.03;;;16.30;99.90;;;;;;5029659;28;20467;-67
2023/06/05 00:55:15;;;;;;;4.45;1.90;;;16.30;99.90;;;;;;5025661;28;20101;-67
2023/06/05 00:57:44;;;;;;;3.17;1.98;;;16.30;99.90;;;;;;5030179;28;20059;-67
2023/06/05 01:00:12;;;;;;;5.07;2.35;;;16.30;99.90;;;;;;5030220;28;20119;-67
2023/06/05 01:02:39;;;;;;;3.78;1.98;;;16.30;99.90;;;;;;5034655;28;20036;-67
2023/06/05 01:05:05;;;;;;;4.03;2.42;;;16.20;99.90;;;;;;5027221;28;20436;-67
2023/06/05 01:07:37;;;;;;;3.17;2.05;;;16.20;99.90;;;;;;5034607;28;20025;-67
2023/06/05 01:10:06;;;;;;;1.95;1.85;;;16.20;99.90;;;;;;5028725;28;20045;-67
2023/06/05 01:12:51;;;;;;;4.03;1.92;;;16.20;99.90;;;;;;5031004;28;20041;-65
2023/06/05 01:15:18;;;;;;;1.95;1.70;;;16.10;99.90;;;;;;5026964;28;20428;-65
2023/06/05 01:17:47;;;;;;;2.80;1.73;;;16.10;99.90;;;;;;5045722;28;20159;-67
2023/06/05 01:20:13;;;;;;;2.42;2.00;;;16.10;99.90;;;;;;5026023;28;20197;-65
2023/06/05 01:22:39;;;;;;;2.00;1.75;;;16.10;99.90;;;;;;5032460;28;20535;-65
2023/06/05 01:25:09;;;;;;;3.03;2.15;;;16.10;99.90;;;;;;5030416;28;20032;-65
2023/06/05 01:27:42;;;;;;;4.32;2.03;;;16.10;99.90;;;;;;5028362;28;20033;-65
2023/06/05 01:30:08;;;;;;;4.93;2.25;;;16.10;99.90;;;;;;5026314;28;20060;-65
2023/06/05 01:32:44;;;;;;;5.18;2.10;;;16.00;99.90;;;;;;5035857;28;20155;-65
2023/06/05 01:35:16;;;;;;;5.57;2.22;;;15.90;99.90;;;;;;5026518;28;20033;-65
2023/06/05 01:37:46;;;;;;;3.15;2.00;;;15.90;99.90;;;;;;5032020;28;20075;-65
2023/06/05 01:40:17;;;;;;;4.07;1.85;;;15.90;99.90;;;;;;5028351;28;20517;-65
2023/06/05 01:42:44;;;;;;;7.03;2.40;;;15.90;99.90;;;;;;5030609;28;20037;-65
2023/06/05 01:45:11;;;;;;;2.85;2.00;;;15.80;99.90;;;;;;5022135;28;20621;-65
2023/06/05 01:47:38;;;;;;;7.47;2.47;;;15.80;99.90;;;;;;5028703;28;20040;-65
2023/06/05 01:50:05;;;;;;;3.33;2.00;;;15.80;99.90;;;;;;5021351;28;20033;-65
2023/06/05 01:52:32;;;;;;;3.28;2.10;;;15.80;99.90;;;;;;5020202;28;20029;-65
2023/06/05 01:54:59;;;;;;;3.70;2.30;;;15.80;99.90;;;;;;5013190;28;20104;-70
2023/06/05 01:57:34;;;;;;;8.20;2.13;;;15.80;99.90;;;;;;5031167;28;20513;-70
2023/06/05 02:00:06;;;;;;;5.85;1.98;;;15.80;99.90;;;;;;5026562;28;20131;-70
2023/06/05 02:02:32;;;;;;;2.63;2.10;;;15.70;99.90;;;;;;5030307;28;20045;-70
2023/06/05 02:04:59;;;;;;;5.53;2.63;;;15.80;99.90;;;;;;5021893;28;20021;-70
2023/06/05 02:07:25;;;;;;;4.68;2.53;;;15.80;99.90;;;;;;5026742;28;20108;-70
2023/06/05 02:09:50;;;;;;;2.45;2.15;;;15.70;99.90;;;;;;5023825;28;20488;-72
2023/06/05 02:12:16;;;;;;;3.75;2.20;;;15.70;99.90;;;;;;5028255;28;20029;-71
2023/06/05 02:14:44;;;;;;;3.42;2.17;;;15.70;99.90;;;;;;5028711;28;20102;-71
2023/06/05 02:17:13;;;;;;;5.93;2.30;;;15.70;99.90;;;;;;5027361;28;20556;-71
2023/06/05 02:19:41;;;;;;;3.08;2.30;;;15.70;99.90;;;;;;5023812;28;20891;-71
2023/06/05 02:22:07;;;;;;;5.45;2.15;;;15.70;99.90;;;;;;5030424;28;20083;-71
2023/06/05 02:24:34;;;;;;;5.72;2.65;;;15.70;99.90;;;;;;5026829;28;20049;-71
2023/06/05 02:27:00;;;;;;;2.92;2.35;;;15.70;99.90;;;;;;5028017;28;20029;-71
2023/06/05 02:29:26;;;;;;;4.53;2.55;;;15.70;99.90;;;;;;5025321;28;20025;-71
2023/06/05 02:31:51;;;;;;;6.43;2.55;;;15.70;99.90;;;;;;5030567;28;20032;-71
2023/06/05 02:34:17;;;;;;;6.25;2.17;;;15.70;99.90;;;;;;5026510;28;20486;-66
2023/06/05 02:36:45;;;;;;;4.45;2.20;;;15.70;99.90;;;;;;5022143;28;20029;-65
2023/06/05 02:39:12;;;;;;;6.85;2.13;;;15.70;99.90;;;;;;5024334;28;20032;-66
2023/06/05 02:41:38;;;;;;;6.82;2.35;;;15.70;99.90;;;;;;5025216;28;20344;-65
2023/06/05 02:44:03;;;;;;;3.47;2.13;;;15.70;99.90;;;;;;5025683;28;20094;-66
2023/06/05 02:46:29;;;;;;;2.67;2.22;;;15.60;99.90;;;;;;5024612;28;20410;-66
2023/06/05 02:48:55;;;;;;;5.07;2.50;;;15.60;99.90;;;;;;5024093;28;20032;-66
2023/06/05 02:51:20;;;;;;;3.58;2.47;;;15.60;99.90;;;;;;5029780;28;20030;-66
2023/06/05 02:53:46;;;;;;;5.20;2.85;;;15.50;99.90;;;;;;5027340;28;20049;-71
2023/06/05 02:56:13;;;;;;;6.47;2.85;;;15.50;99.90;;;;;;5026936;28;20064;-71
2023/06/05 02:58:39;;;;;;;5.25;2.67;;;15.50;99.90;;;;;;5023288;28;20827;-71
2023/06/05 03:01:08;;;;;;;10.75;2.58;;;15.40;99.90;;;;;;5028909;28;20017;-71
2023/06/05 03:03:34;;;;;;;7.38;2.55;;;15.40;99.90;;;;;;5029167;28;20529;-72
2023/06/05 03:06:04;;;;;;;6.85;2.72;;;15.40;99.90;;;;;;5020491;28;20152;-71
2023/06/05 03:08:34;;;;;;;9.27;2.70;;;15.40;99.90;;;;;;5021830;28;20036;-72
2023/06/05 03:11:01;;;;;;;4.85;2.13;;;15.40;99.90;;;;;;5020777;28;20449;-67
2023/06/05 03:13:27;;;;;;;12.52;2.70;;;15.40;99.90;;;;;;5024981;28;20025;-66
2023/06/05 03:15:56;;;;;;;8.55;2.40;;;15.40;99.90;;;;;;5026791;28;20033;-66
2023/06/05 03:18:24;;;;;;;5.20;2.13;;;15.30;99.90;;;;;;5026356;28;20123;-66
2023/06/05 03:20:51;;;;;;;5.50;2.60;;;15.40;99.90;;;;;;5026675;28;20116;-66
2023/06/05 03:23:16;;;;;;;4.50;2.42;;;15.40;99.90;;;;;;5019896;28;20030;-65
2023/06/05 03:25:42;;;;;;;6.53;2.95;;;15.40;99.90;;;;;;5023903;28;20037;-66
2023/06/05 03:28:08;;;;;;;4.63;2.53;;;15.40;99.90;;;;;;5018363;28;20033;-66
2023/06/05 03:30:34;;;;;;;6.80;2.50;;;15.40;99.90;;;;;;5028301;28;20113;-71
2023/06/05 03:32:59;;;;;;;3.33;2.45;;;15.50;99.90;;;;;;5024021;28;20037;-72
2023/06/05 03:35:26;;;;;;;4.03;2.72;;;15.50;99.90;;;;;;5029854;28;20021;-71
2023/06/05 03:37:51;;;;;;;4.88;2.60;;;15.60;99.90;;;;;;5026622;28;20026;-71
2023/06/05 03:40:17;;;;;;;3.85;2.28;;;15.70;99.90;;;;;;5026228;28;20408;-72
2023/06/05 03:42:43;;;;;;;3.97;2.58;;;15.70;99.90;;;;;;5026465;28;20033;-72
2023/06/05 03:45:09;;;;;;;5.40;2.78;;;15.80;99.90;;;;;;5024398;28;20061;-71
2023/06/05 03:47:34;;;;;;;5.47;2.47;;;15.80;99.90;;;;;;5024865;28;20037;-72
2023/06/05 03:50:02;;;;;;;2.30;2.05;;;15.80;99.90;;;;;;5030966;28;20055;-71
2023/06/05 03:52:29;;;;;;;4.68;2.60;;;15.90;99.90;;;;;;5022310;28;20048;-71
2023/06/05 03:54:55;;;;;;;3.60;2.42;;;15.90;99.90;;;;;;5039053;28;20039;-71
2023/06/05 03:57:22;;;;;;;3.20;2.78;;;16.00;99.90;;;;;;5028155;28;22010;-71
2023/06/05 03:59:48;;;;;;;3.28;2.97;;;16.10;99.90;;;;;;5026686;28;20494;-71
2023/06/05 04:02:14;;;;;;;4.88;2.58;;;16.20;99.90;;;;;;5013165;28;20582;-71
2023/06/05 04:04:39;;;;;;;5.03;3.05;;;16.30;99.90;;;;;;5024026;28;20044;-71
2023/06/05 04:07:05;;;;;;;3.13;2.63;;;16.40;99.90;;;;;;5023222;28;20108;-71
2023/06/05 04:09:32;;;;;;;2.83;2.38;;;16.50;99.90;;;;;;5030040;28;20034;-71
2023/06/05 04:11:58;;;;;;;3.05;2.55;;;16.60;99.90;;;;;;5023191;28;20029;-71
2023/06/05 04:14:24;;;;;;;5.63;3.00;;;16.70;99.90;;;;;;5024491;28;20043;-71
2023/06/05 04:16:50;;;;;;;2.88;2.58;;;16.70;99.90;;;;;;5024492;28;20415;-71
2023/06/05 04:19:16;;;;;;;3.17;2.78;;;16.80;99.90;;;;;;5028608;28;20541;-71
2023/06/05 04:21:42;;;;;;;2.67;2.47;;;16.80;99.90;;;;;;5027988;28;20045;-71
2023/06/05 04:24:10;;;;;;;3.92;2.83;;;16.80;99.90;;;;;;5027711;28;20061;-72
2023/06/05 04:26:37;;;;;;;3.00;2.58;;;16.90;99.90;;;;;;5025892;28;20021;-71
2023/06/05 04:29:09;;;;;;;4.82;2.35;;;17.00;99.90;;;;;;5028838;28;20033;-71
2023/06/05 04:31:35;;;;;;;;;;;16.90;99.90;;;;;;5031269;28;20464;-71
2023/06/05 04:34:05;;;;;;;4.00;2.50;;;16.90;99.90;;;;;;5023196;28;19991;-71
2023/06/05 04:36:31;;;;;;;4.10;2.38;;;16.90;99.90;;;;;;5026737;28;20033;-72
2023/06/05 04:38:56;;;;;;;6.72;2.83;;;16.90;99.90;;;;;;5028429;28;20021;-71
2023/06/05 04:41:22;;;;;;;3.08;2.60;;;16.90;99.90;;;;;;5029039;28;20076;-71
2023/06/05 04:43:48;;;;;;;4.32;3.10;;;17.00;99.90;;;;;;5030952;28;20032;-71
2023/06/05 04:46:14;;;;;;;4.20;2.80;;;17.00;99.90;;;;;;5024986;28;20488;-72
2023/06/05 04:48:40;;;;;;;5.40;2.90;;;17.10;99.90;;;;;;5029258;28;20033;-71
2023/06/05 04:51:05;;;;;;;2.80;2.60;;;17.10;99.90;;;;;;5023319;28;20029;-72
2023/06/05 04:53:32;;;;;;;3.97;2.90;;;17.10;99.90;;;;;;5022822;28;20449;-71
2023/06/05 04:56:01;;;;;;;3.47;2.97;;;17.20;99.90;;;;;;5030517;28;20097;-72
2023/06/05 04:58:27;;;;;;;4.82;3.13;;;17.20;99.90;;;;;;5027280;28;20558;-72
2023/06/05 05:00:53;;;;;;;4.40;3.17;;;17.20;99.90;;;;;;5021708;28;20029;-72
2023/06/05 05:03:18;;;;;;;8.95;3.42;;;17.20;99.90;;;;;;5028833;28;20652;-66
2023/06/05 05:05:44;;;;;;;3.05;2.75;;;17.20;99.90;;;;;;5023449;28;20103;-67
2023/06/05 05:08:10;;;;;;;4.57;3.20;;;17.20;99.90;;;;;;5027152;28;20174;-67
2023/06/05 05:10:36;;;;;;;3.42;2.70;;;17.20;99.90;;;;;;5026132;28;20032;-68
2023/06/05 05:13:02;;;;;;;3.00;2.67;;;17.10;99.90;;;;;;5029275;28;20042;-66
2023/06/05 05:15:31;;;;;;;4.30;2.88;;;17.10;99.90;;;;;;5021873;28;20205;-67
2023/06/05 05:17:56;;;;;;;6.45;3.50;;;17.10;99.90;;;;;;5027247;28;20029;-66
2023/06/05 05:20:23;;;;;;;3.55;2.70;;;17.00;99.90;;;;;;5025520;28;20071;-67
2023/06/05 05:22:48;;;;;;;4.60;3.30;;;17.00;99.90;;;;;;5023618;28;20191;-67
2023/06/05 05:25:15;;;;;;;4.22;2.97;;;17.10;99.90;;;;;;5019860;28;20440;-65
2023/06/05 05:27:41;;;;;;;36.80;10.02;;;17.00;99.90;;;;;;5025997;28;20090;-65
2023/06/05 05:30:08;;;;;;;5.10;3.40;;;17.10;99.90;;;;;;5029683;28;20021;-65
2023/06/05 05:32:34;;;;;;;11.93;3.40;;;17.20;99.90;;;;;;5025690;28;20566;-64
2023/06/05 05:34:59;;;;;;;3.67;3.03;;;17.30;99.90;;;;;;5027876;28;20478;-64
2023/06/05 05:37:25;;;;;;;7.53;2.85;;;17.40;99.90;;;;;;5027672;28;20445;-71
2023/06/05 05:39:51;;;;;;;4.20;2.80;;;17.40;99.90;;;;;;5030305;28;20061;-71
2023/06/05 05:42:17;;;;;;;3.08;2.78;;;17.50;99.90;;;;;;5026524;28;20049;-71
2023/06/05 05:44:44;;;;;;;3.53;3.00;;;17.50;99.90;;;;;;5031746;28;20029;-72
2023/06/05 05:47:10;;;;;;;10.07;2.78;;;17.60;99.90;;;;;;5022776;28;20503;-71
2023/06/05 05:49:36;;;;;;;6.03;3.13;;;17.60;99.90;;;;;;5027255;28;20108;-71
2023/06/05 05:52:02;;;;;;;3.13;2.63;;;17.70;99.90;;;;;;5029575;28;20033;-71
2023/06/05 05:54:28;;;;;;;3.63;2.95;;;17.70;99.90;;;;;;5023239;28;20623;-71
2023/06/05 05:56:55;;;;;;;2.97;2.60;;;17.90;99.90;;;;;;5033770;28;20029;-71
2023/06/05 05:59:21;;;;;;;4.82;2.70;;;18.00;99.90;;;;;;5028901;28;20114;-72
2023/06/05 06:01:48;;;;;;;3.45;3.00;;;18.10;99.90;;;;;;5025755;28;20124;-71
2023/06/05 06:04:16;;;;;;;3.30;3.00;;;18.20;99.90;;;;;;5026507;28;20374;-66
2023/06/05 06:06:42;;;;;;;5.38;3.20;;;18.30;99.90;;;;;;5029545;28;20056;-66
2023/06/05 06:09:10;;;;;;;4.10;2.70;;;18.50;99.90;;;;;;5031040;28;20751;-66
2023/06/05 06:11:36;;;;;;;4.68;2.60;;;18.60;99.90;;;;;;5027606;28;20037;-66
2023/06/05 06:14:02;;;;;;;3.35;2.55;;;18.60;99.90;;;;;;5032393;28;20033;-66
2023/06/05 06:16:27;;;;;;;3.70;2.60;;;18.60;99.90;;;;;;5026576;28;20035;-66
2023/06/05 06:18:55;;;;;;;3.22;2.92;;;18.70;99.90;;;;;;5027148;28;20041;-66
2023/06/05 06:21:23;;;;;;;8.27;2.88;;;18.80;99.90;;;;;;5026216;28;20029;-66
2023/06/05 06:23:49;;;;;;;3.65;2.78;;;18.90;99.90;;;;;;5029103;28;20051;-66
2023/06/05 06:26:15;;;;;;;3.70;2.20;;;18.90;99.90;;;;;;5024367;28;20032;-66
2023/06/05 06:28:41;;;;;;;3.38;2.60;;;19.00;99.90;;;;;;5033701;28;20053;-66
2023/06/05 06:31:07;;;;;;;5.72;2.80;;;19.00;99.90;;;;;;5025297;28;20587;-66
2023/06/05 06:33:32;;;;;;;4.05;2.20;;;19.10;99.90;;;;;;5027976;28;20042;-66
2023/06/05 06:35:58;;;;;;;3.40;2.35;;;19.20;99.90;;;;;;5027885;28;20052;-66
2023/06/05 06:38:29;;;;;;;3.10;2.22;;;19.20;99.90;;;;;;5034022;28;20060;-67
2023/06/05 06:40:59;;;;;;;2.95;2.40;;;19.30;99.90;;;;;;5025988;28;20049;-66
2023/06/05 06:43:24;;;;;;;4.32;2.22;;;19.30;99.90;;;;;;5026654;28;20055;-66
2023/06/05 06:45:52;;;;;;;6.07;2.70;;;19.40;99.90;;;;;;5031959;28;20026;-66
2023/06/05 06:48:18;;;;;;;63.10;7.60;;;19.50;99.90;;;;;;5032163;28;20568;-66
2023/06/05 06:50:44;;;;;;;3.20;2.67;;;19.60;99.90;;;;;;5018757;28;20282;-66
2023/06/05 06:53:10;;;;;;;3.67;2.42;;;19.60;99.90;;;;;;5030876;28;20493;-66
2023/06/05 06:55:36;;;;;;;5.47;2.78;;;19.60;99.90;;;;;;5028266;28;20047;-66
2023/06/05 06:58:02;;;;;;;2.90;2.60;;;19.70;99.90;;;;;;5032888;28;20032;-66
2023/06/05 07:00:27;;;;;;;5.63;2.55;;;19.70;99.90;;;;;;5030582;28;20116;-66
2023/06/05 07:02:53;;;;;;;6.63;2.40;;;19.80;99.90;;;;;;5016995;28;20030;-65
2023/06/05 07:05:20;;;;;;;7.40;2.67;;;19.80;99.90;;;;;;5020987;28;20037;-65
2023/06/05 07:07:45;;;;;;;16.55;3.88;;;19.90;99.90;;;;;;5023653;28;20025;-66
2023/06/05 07:10:11;;;;;;;3.78;3.30;;;20.10;99.90;;;;;;5028948;28;20542;-66
2023/06/05 07:12:38;;;;;;;13.73;3.42;;;20.30;99.90;;;;;;5025883;28;20045;-66
2023/06/05 07:15:04;;;;;;;6.43;2.30;;;20.50;99.90;;;;;;5024042;28;20040;-66
2023/06/05 07:17:30;;;;;;;3.13;2.63;;;20.60;99.90;;;;;;5027584;28;20174;-66
2023/06/05 07:19:58;;;;;;;6.68;2.75;;;20.70;99.90;;;;;;5024941;28;20124;-65
2023/06/05 07:22:26;;;;;;;4.20;2.40;;;20.70;99.90;;;;;;5020761;28;20120;-66
2023/06/05 07:24:53;;;;;;;4.80;2.75;;;20.80;99.90;;;;;;5039377;28;20037;-66
2023/06/05 07:27:20;;;;;;;3.45;2.42;;;21.00;99.90;;;;;;5012253;28;20029;-65
2023/06/05 07:29:46;;;;;;;5.07;2.50;;;21.20;99.90;;;;;;5020520;28;20057;-65
2023/06/05 07:32:13;;;;;;;3.08;2.60;;;21.20;99.90;;;;;;5027311;28;21294;-66
2023/06/05 07:34:38;;;;;;;7.30;3.13;;;21.30;99.90;;;;;;5028071;28;20036;-65
2023/06/05 07:37:04;;;;;;;5.10;1.95;;;21.40;99.90;;;;;;5014781;28;20046;-65
2023/06/05 07:39:30;;;;;;;3.08;2.33;;;21.50;99.90;;;;;;5008838;28;20029;-65
2023/06/05 07:41:56;;;;;;;3.10;2.53;;;21.70;99.90;;;;;;5023176;28;20130;-65
2023/06/05 07:44:22;;;;;;;11.90;3.17;;;21.80;99.90;;;;;;5018354;28;20033;-65
2023/06/05 07:46:48;;;;;;;3.13;2.50;;;21.70;99.90;;;;;;5020520;28;20426;-65
2023/06/05 07:49:17;;;;;;;2.63;2.40;;;21.60;99.90;;;;;;5027812;28;20029;-65
2023/06/05 07:51:43;;;;;;;3.15;2.30;;;21.50;99.90;;;;;;5024396;28;20033;-65
2023/06/05 07:54:10;;;;;;;3.13;2.30;;;21.40;99.90;;;;;;5022035;28;20820;-65
2023/06/05 07:56:38;;;;;;;2.65;2.38;;;21.40;99.90;;;;;;5032113;28;20041;-65
2023/06/05 07:59:05;;;;;;;2.63;2.15;;;21.40;99.90;;;;;;5032088;28;20718;-71
2023/06/05 08:01:31;;;;;;;3.47;2.40;;;21.40;99.90;;;;;;5025856;28;20033;-70
2023/06/05 08:03:57;;;;;;;4.10;2.40;;;21.40;99.90;;;;;;5033495;28;20497;-71
2023/06/05 08:06:24;;;;;;;2.63;2.28;;;21.40;99.90;;;;;;5030280;28;20051;-70
2023/06/05 08:08:50;;;;;;;3.63;2.53;;;21.40;99.90;;;;;;5031747;28;20037;-70
2023/06/05 08:11:16;;;;;;;4.28;2.20;;;21.40;99.90;;;;;;5032185;28;20028;-70
2023/06/05 08:13:42;;;;;;;3.90;2.25;;;21.60;99.90;;;;;;5032411;28;20394;-70
2023/06/05 08:16:07;;;;;;;2.55;2.35;;;21.70;99.90;;;;;;5023514;28;20033;-71
2023/06/05 08:18:33;;;;;;;6.22;2.70;;;21.90;99.90;;;;;;5012814;28;20033;-65
2023/06/05 08:20:59;;;;;;;3.22;2.47;;;22.00;99.90;;;;;;5029397;28;20112;-65
2023/06/05 08:23:26;;;;;;;3.17;2.40;;;22.20;99.90;;;;;;5021640;28;20033;-65
2023/06/05 08:25:53;;;;;;;2.70;2.38;;;22.30;99.90;;;;;;5025407;28;20029;-65
2023/06/05 08:28:18;;;;;;;2.22;2.03;;;22.40;99.90;;;;;;5035193;28;20036;-66
2023/06/05 08:30:44;;;;;;;2.97;2.40;;;22.40;99.90;;;;;;5034464;28;20029;-65
2023/06/05 08:33:10;;;;;;;3.22;2.45;;;22.40;99.90;;;;;;5025513;28;20033;-65
2023/06/05 08:35:36;;;;;;;2.75;2.25;;;22.40;99.90;;;;;;5027778;28;20021;-71
2023/06/05 08:38:03;;;;;;;3.10;2.20;;;22.60;99.90;;;;;;5024297;28;20037;-71
2023/06/05 08:40:29;;;;;;;2.33;2.13;;;22.50;99.90;;;;;;5019450;28;20056;-71
2023/06/05 08:42:55;;;;;;;8.07;2.10;;;22.50;99.90;;;;;;5033053;28;20044;-71
2023/06/05 08:45:21;;;;;;;6.07;2.55;;;22.60;99.90;;;;;;5029359;28;20770;-71
2023/06/05 08:47:50;;;;;;;4.15;2.30;;;22.70;99.90;;;;;;5030220;28;20033;-70
2023/06/05 08:50:35;;;;;;;2.65;2.10;;;22.70;99.90;;;;;;5021848;28;20037;-70
2023/06/05 08:53:02;;;;;;;3.20;2.70;;;22.60;99.90;;;;;;5031752;28;20214;-71
2023/06/05 08:55:29;;;;;;;2.78;2.17;;;22.50;99.90;;;;;;5028035;28;20060;-65
2023/06/05 08:57:55;;;;;;;3.25;2.60;;;22.50;99.90;;;;;;5028302;28;20572;-65
2023/06/05 09:00:22;;;;;;;3.65;2.15;;;22.30;99.90;;;;;;5033900;28;20036;-65
2023/06/05 09:02:48;;;;;;;3.80;2.17;;;22.30;99.90;;;;;;5028977;28;20619;-65
2023/06/05 09:05:14;;;;;;;12.88;2.67;;;22.30;99.90;;;;;;5013204;28;20127;-65
2023/06/05 09:07:40;;;;;;;3.50;2.13;;;22.30;99.90;;;;;;5014316;28;20109;-65
2023/06/05 09:10:20;;;;;;;3.17;2.17;;;22.30;99.90;;;;;;5020747;28;20040;-66
2023/06/05 09:12:57;;;;;;;3.47;2.20;;;22.30;99.90;;;;;;5004508;28;20411;-64
2023/06/05 09:15:25;;;;;;;4.25;2.05;;;22.10;99.90;;;;;;5005804;28;20145;-65
2023/06/05 09:18:10;;;;;;;4.40;2.33;;;22.00;99.90;;;;;;5013982;28;20059;-65
2023/06/05 09:20:42;;;;;;;2.80;2.00;;;22.00;99.90;;;;;;5020698;28;20904;-65
2023/06/05 09:23:41;;;;;;;4.65;2.05;;;22.00;99.90;;;;;;5047623;28;20071;-65
2023/06/05 09:26:09;;;;;;;5.32;2.72;;;22.00;99.90;;;;;;5000656;28;20509;-65
2023/06/05 09:28:35;;;;;;;7.40;1.90;;;22.00;99.90;;;;;;5026602;28;20480;-65
2023/06/05 09:31:02;;;;;;;2.47;2.03;;;22.00;99.90;;;;;;5031620;28;20139;-65
2023/06/05 09:33:33;;;;;;;4.45;2.03;;;22.00;99.90;;;;;;5025925;28;20055;-65
2023/06/05 09:36:04;;;;;;;3.90;1.80;;;22.00;99.90;;;;;;5031948;28;20411;-65
2023/06/05 09:38:30;;;;;;;4.03;1.90;;;21.90;99.90;;;;;;5028605;28;20291;-65
2023/06/05 09:41:06;;;;;;;5.45;2.10;;;21.90;99.90;;;;;;5028115;28;20436;-65
2023/06/05 09:43:33;;;;;;;3.30;2.00;;;21.90;99.90;;;;;;5022777;28;20033;-65
2023/06/05 09:46:05;;;;;;;4.53;2.00;;;21.90;99.90;;;;;;5018658;28;20029;-65
2023/06/05 09:48:32;;;;;;;;;;;22.00;99.90;;;;;;5032341;28;20133;-65
2023/06/05 09:51:09;;;;;;;2.70;2.30;;;22.00;99.90;;;;;;5032682;28;19916;-65
2023/06/05 09:53:40;;;;;;;4.20;2.08;;;22.00;99.90;;;;;;5034762;28;20025;-65
2023/06/05 09:56:09;;;;;;;3.50;2.77;;;22.10;99.90;;;;;;5026668;28;20036;-66
2023/06/05 09:58:37;;;;;;;4.70;2.47;;;22.10;99.90;;;;;;5031929;28;20025;-66
2023/06/05 10:01:06;;;;;;;4.63;1.92;;;22.10;99.90;;;;;;5035356;28;20029;-65
2023/06/05 10:03:36;;;;;;;5.53;2.35;;;22.20;99.90;;;;;;5023314;28;20047;-65
2023/06/05 10:06:05;;;;;;;1.83;1.70;;;22.20;99.90;;;;;;5030528;28;20088;-65
2023/06/05 10:08:31;;;;;;;3.22;2.20;;;22.30;99.90;;;;;;5028332;28;20106;-65
2023/06/05 10:10:57;;;;;;;2.80;2.10;;;22.40;99.90;;;;;;5027868;28;20116;-65
2023/06/05 10:13:23;;;;;;;3.72;2.20;;;22.40;99.90;;;;;;5029936;28;20039;-65
2023/06/05 10:15:52;;;;;;;2.90;2.28;;;22.40;99.90;;;;;;5033496;28;20041;-65
2023/06/05 10:18:17;;;;;;;8.48;2.20;;;22.50;99.90;;;;;;5020822;28;20034;-65
2023/06/05 10:20:46;;;;;;;3.45;2.30;;;22.50;99.90;;;;;;5030866;28;20043;-65
2023/06/05 10:23:14;;;;;;;4.22;2.10;;;22.50;99.90;;;;;;5027672;28;21680;-65
2023/06/05 10:25:41;;;;;;;4.60;2.10;;;22.60;99.90;;;;;;5030890;28;20022;-65
2023/06/05 10:28:30;;;;;;;3.05;1.70;;;22.60;99.90;;;;;;5026844;28;20029;-65
2023/06/05 10:31:15;;;;;;;6.47;2.20;;;22.60;99.90;;;;;;5031427;28;20037;-65
2023/06/05 10:34:06;;;;;;;3.47;2.30;;;22.60;99.90;;;;;;5033904;28;20259;-65
2023/06/05 10:36:43;;;;;;;4.45;2.35;;;22.70;99.90;;;;;;5022938;28;20497;-65
2023/06/05 10:39:10;;;;;;;3.88;2.33;;;22.70;99.90;;;;;;5026947;28;20049;-65
2023/06/05 10:41:36;;;;;;;3.08;2.00;;;22.70;99.90;;;;;;5032889;28;20405;-65
2023/06/05 10:44:02;;;;;;;3.35;2.08;;;22.90;99.90;;;;;;5026312;28;20297;-65
2023/06/05 10:46:30;;;;;;;3.00;2.33;;;23.00;99.90;;;;;;5029468;28;20029;-65
2023/06/05 10:49:17;;;;;;;4.80;2.08;;;22.90;99.90;;;;;;5029571;28;20090;-65
2023/06/05 10:51:46;;;;;;;6.68;2.60;;;23.00;99.90;;;;;;5031161;28;20021;-65
2023/06/05 10:54:24;;;;;;;5.60;2.30;;;23.20;99.90;;;;;;5031173;28;20033;-65
2023/06/05 10:57:01;;;;;;;5.60;2.25;;;23.20;99.90;;;;;;5025667;28;20021;-65
2023/06/05 10:59:29;;;;;;;6.80;2.15;;;23.30;99.90;;;;;;5027511;28;20068;-65
2023/06/05 11:02:16;;;;;;;2.30;2.10;;;23.40;99.90;;;;;;5024688;28;20037;-65
2023/06/05 11:04:47;;;;;;;5.18;3.00;;;23.40;99.90;;;;;;5026241;28;20466;-65
2023/06/05 11:07:21;;;;;;;6.22;3.28;;;23.40;99.90;;;;;;5018730;28;20033;-66
2023/06/05 11:10:02;;;;;;;3.58;2.28;;;23.40;99.90;;;;;;5023634;28;20037;-72
2023/06/05 11:12:50;;;;;;;7.55;2.40;;;23.40;99.90;;;;;;5021953;28;20033;-72
2023/06/05 11:15:36;;;;;;;4.13;2.20;;;23.30;99.90;;;;;;5015085;28;20037;-72
2023/06/05 11:18:26;;;;;;;5.43;2.78;;;23.40;99.90;;;;;;5023187;28;20342;-71
2023/06/05 11:20:52;;;;;;;5.65;2.63;;;23.50;99.90;;;;;;5031413;28;20426;-72
2023/06/05 11:23:18;;;;;;;3.25;2.05;;;23.50;99.90;;;;;;5030745;28;20485;-72
2023/06/05 11:25:44;;;;;;;4.13;2.33;;;23.50;99.90;;;;;;5030027;28;20029;-72
2023/06/05 11:28:12;;;;;;;4.95;2.05;;;23.70;99.90;;;;;;5033445;28;20024;-66
2023/06/05 11:30:43;;;;;;;2.30;1.90;;;24.00;99.90;;;;;;5030269;28;20545;-66
2023/06/05 11:33:12;;;;;;;3.95;2.05;;;24.10;99.90;;;;;;5025822;28;20037;-65
2023/06/05 11:35:38;;;;;;;1.80;1.67;;;24.10;99.90;;;;;;5023857;28;20032;-65
2023/06/05 11:38:12;;;;;;;4.65;2.20;;;24.10;99.90;;;;;;5033402;28;20034;-65
2023/06/05 11:40:39;;;;;;;3.25;1.85;;;24.10;99.80;;;;;;5023020;28;20479;-65
2023/06/05 11:43:07;;;;;;;4.28;2.67;;;24.10;98.90;;;;;;5030388;28;20091;-65
2023/06/05 11:45:35;;;;;;;11.30;4.15;;;24.00;99.90;;;;;;5025622;28;20068;-66
2023/06/05 11:48:11;;;;;;;2.75;2.08;;;24.20;97.60;;;;;;5025246;28;20033;-70
2023/06/05 11:50:39;;;;;;;2.83;1.90;;;24.10;96.90;;;;;;5029584;28;20028;-71
2023/06/05 11:53:09;;;;;;;4.03;2.20;;;24.10;97.20;;;;;;5024510;28;20071;-70
2023/06/05 11:58:27;;;;;;;3.07;1.90;;;24.10;97.10;;;;;;5026363;28;20520;-71
2023/06/05 12:01:12;;;;;;;7.72;2.10;;;24.20;96.90;;;;;;5018754;28;20026;-70
2023/06/05 12:03:39;;;;;;;4.22;2.03;;;24.20;96.40;;;;;;5011830;28;20037;-71
2023/06/05 12:06:05;;;;;;;8.02;2.53;;;24.30;96.30;;;;;;5016167;28;20108;-71
2023/06/05 12:08:33;;;;;;;4.22;1.95;;;24.40;96.40;;;;;;5026911;28;20142;-71
2023/06/05 12:10:59;;;;;;;3.63;1.80;;;24.40;95.40;;;;;;5017773;28;20176;-71
2023/06/05 12:13:57;;;;;;;1.95;1.75;;;24.50;94.90;;;;;;5015586;28;20382;-71
2023/06/05 12:16:43;;;;;;;3.58;2.00;;;24.50;96.10;;;;;;5025987;28;20122;-71
2023/06/05 12:19:18;;;;;;;5.80;1.98;;;24.60;93.90;;;;;;5010560;28;20733;-71
2023/06/05 12:21:46;;;;;;;3.40;2.05;;;24.50;92.50;;;;;;5026650;28;20041;-71
2023/06/05 12:24:12;;;;;;;5.72;2.28;;;24.50;93.30;;;;;;5024613;28;20168;-71
2023/06/05 12:26:53;;;;;;;4.90;2.13;;;24.50;93.10;;;;;;5019434;28;20093;-71
2023/06/05 12:29:20;;;;;;;2.58;1.63;;;24.40;93.10;;;;;;5024626;28;20036;-71
2023/06/05 12:31:46;;;;;;;2.55;2.20;;;24.50;92.80;;;;;;5021503;28;20036;-71
2023/06/05 12:34:12;;;;;;;2.45;1.60;;;24.60;92.10;;;;;;5029788;28;20025;-71
2023/06/05 12:36:40;;;;;;;6.50;2.03;;;24.70;91.10;;;;;;5016108;28;20387;-71
2023/06/05 12:39:06;;;;;;;2.28;1.77;;;24.70;91.60;;;;;;5019499;28;20448;-71
2023/06/05 12:41:33;;;;;;;4.20;1.88;;;24.80;91.40;;;;;;5022865;28;20279;-71
2023/06/05 12:44:04;;;;;;;5.50;1.67;;;24.80;90.60;;;;;;5021389;28;20704;-70
2023/06/05 12:46:31;;;;;;;4.10;2.20;;;24.80;90.70;;;;;;5035636;28;20029;-71
2023/06/05 12:48:57;;;;;;;5.40;2.10;;;24.70;90.90;;;;;;5025158;28;20030;-71
2023/06/05 12:51:24;;;;;;;20.13;2.55;;;24.80;90.80;;;;;;5028566;28;20071;-71
2023/06/05 12:53:50;;;;;;;6.50;2.28;;;24.80;90.70;;;;;;5028376;28;20037;-72
2023/06/05 12:56:16;;;;;;;3.28;1.73;;;25.00;90.40;;;;;;5015554;28;20527;-72